North Broadalbin, New York
Current Conditions -  °F | °C
As of 4:15 PM on Wednesday 26 Nov 2014 (Local Time) from KNY0 Reporting Station
Overcast Overcast  
Wind Chill: 22°   Ceiling: 600
Heat Index: 29°   Visibility: 1.5mi
Dew Point: 28°   Wind: 8mph
Humidity: 94%   Direction: 20°NNE
Pressure: 29.99"   Gusts: NA
Location:  43.0744°N, 74.1473°W
Report Text: KNY0 262115Z AUTO 02007KT 1 1/2SM BKN006 BKN023 OVC031 M01/M02 A2999 RMK AO2 P0001 T10151023
Loading
Personal Weather Stations






























Interactive Weather Map New forecast layout! Learn more

10-Day Weather Forecast

Advertisements
Track Severe Weather on mobile